Terminal Aerodrome Forecast
Issued by NWS Charleston, WV

Current Version | Previous Version | Text Only | Print | Product List | Glossary Off
Versions: 1 2 3 4 5 6 7 8 9 10 11 12 13 14 15 16 17 18 19 20 21 22 23 24 25

000
FTUS41 KRLX 151700 RRA
TAFBKW
TAF
KBKW 151750Z 1518/1618 26007KT P6SM BKN040
     FM160800 00000KT P6SM VCSH BKN035 OVC120
     FM161100 00000KT P6SM BKN020
     FM161500 29004KT P6SM BKN015=

USA.gov is the U.S. government's official web portal to all federal, state and local government web resources and services.